createdAt,value
2018-09-04T00:00:21.081Z,101597.08
2018-09-04T00:02:49.680Z,101596.13
2018-09-04T00:05:18.287Z,101599.02
2018-09-04T00:07:46.914Z,101601.14
2018-09-04T00:10:16.350Z,101599.06
2018-09-04T00:12:44.961Z,101601.64
2018-09-04T00:15:13.542Z,101598.48
2018-09-04T00:17:42.135Z,101596.67
2018-09-04T00:20:10.752Z,101599.02
2018-09-04T00:22:39.376Z,101594.66
2018-09-04T00:25:07.978Z,101590.66
2018-09-04T00:27:36.577Z,101585.98
2018-09-04T00:30:06.002Z,101587.36
2018-09-04T00:32:34.597Z,101591.19
2018-09-04T00:35:03.174Z,101586.42
2018-09-04T00:37:31.828Z,101589.95
2018-09-04T00:40:00.464Z,101587.33
2018-09-04T00:42:29.085Z,101585.84
2018-09-04T00:44:57.724Z,101590.51
2018-09-04T00:47:26.319Z,101577.48
2018-09-04T00:49:54.890Z,101581.30
2018-09-04T00:52:23.488Z,101585.97
2018-09-04T00:54:52.063Z,101583.12
2018-09-04T00:57:20.645Z,101586.10
2018-09-04T00:59:49.240Z,101583.98
2018-09-04T01:02:17.827Z,101585.89
2018-09-04T01:04:47.240Z,101587.80
2018-09-04T01:07:16.197Z,101582.84
2018-09-04T01:09:44.805Z,101578.94
2018-09-04T01:12:13.398Z,101580.31
2018-09-04T01:14:41.969Z,101579.91
2018-09-04T01:17:10.570Z,101578.73
2018-09-04T01:19:39.221Z,101586.05
2018-09-04T01:22:07.800Z,101582.78
2018-09-04T01:24:36.451Z,101587.95
2018-09-04T01:27:05.104Z,101582.98
2018-09-04T01:29:33.696Z,101587.83
2018-09-04T01:32:02.293Z,101589.00
2018-09-04T01:34:30.909Z,101585.61
2018-09-04T01:36:59.500Z,101584.66
2018-09-04T01:39:28.106Z,101584.59
2018-09-04T01:41:56.673Z,101579.63
2018-09-04T01:44:25.289Z,101590.73
2018-09-04T01:46:53.872Z,101585.34
2018-09-04T01:49:22.531Z,101583.66
2018-09-04T01:51:51.106Z,101575.64
2018-09-04T01:54:19.718Z,101576.27
2018-09-04T01:56:48.303Z,101580.09
2018-09-04T01:59:16.911Z,101576.80
2018-09-04T02:01:45.540Z,101574.28
2018-09-04T02:04:14.166Z,101570.47
2018-09-04T02:06:42.757Z,101570.90
2018-09-04T02:09:11.362Z,101581.60
2018-09-04T02:11:39.941Z,101575.25
2018-09-04T02:14:08.592Z,101573.65
2018-09-04T02:16:37.210Z,101574.61
2018-09-04T02:19:06.379Z,101574.31
2018-09-04T02:21:34.955Z,101567.43
2018-09-04T02:24:03.549Z,101562.35
2018-09-04T02:26:32.146Z,101565.95
2018-09-04T02:29:00.748Z,101560.25
2018-09-04T02:31:29.310Z,101556.73
2018-09-04T02:33:57.901Z,101553.47
2018-09-04T02:36:26.561Z,101556.84
2018-09-04T02:38:55.205Z,101551.44
2018-09-04T02:41:23.842Z,101552.69
2018-09-04T02:43:52.441Z,101558.07
2018-09-04T02:46:21.018Z,101558.17
2018-09-04T02:48:49.600Z,101553.62
2018-09-04T02:51:18.221Z,101550.20
2018-09-04T02:53:46.879Z,101547.43
2018-09-04T02:56:15.465Z,101551.50
2018-09-04T02:58:44.102Z,101550.87
2018-09-04T03:01:12.695Z,101551.87
2018-09-04T03:03:41.276Z,101554.00
2018-09-04T03:06:09.870Z,101551.72
2018-09-04T03:08:38.444Z,101555.52
2018-09-04T03:11:07.025Z,101550.18
2018-09-04T03:13:35.669Z,101548.13
2018-09-04T03:16:04.262Z,101552.66
2018-09-04T03:18:32.845Z,101549.50
2018-09-04T03:21:01.449Z,101544.69
2018-09-04T03:23:30.029Z,101550.17
2018-09-04T03:25:58.640Z,101550.50
2018-09-04T03:28:27.209Z,101551.94
2018-09-04T03:30:55.855Z,101549.52
2018-09-04T03:33:24.420Z,101548.65
2018-09-04T03:35:53.084Z,101548.05
2018-09-04T03:38:21.648Z,101549.86
2018-09-04T03:40:50.232Z,101546.80
2018-09-04T03:43:18.796Z,101544.05
2018-09-04T03:45:47.385Z,101546.47
2018-09-04T03:48:16.003Z,101544.05
2018-09-04T03:50:44.643Z,101549.63
2018-09-04T03:53:13.209Z,101552.92
2018-09-04T03:55:41.785Z,101553.32
2018-09-04T03:58:10.359Z,101555.87
2018-09-04T04:00:38.957Z,101553.52
2018-09-04T04:03:07.537Z,101561.64
2018-09-04T04:05:36.248Z,101559.83
2018-09-04T04:08:04.844Z,101559.05
2018-09-04T04:10:33.438Z,101558.30
2018-09-04T04:13:02.561Z,101558.70
2018-09-04T04:15:31.159Z,101557.39
2018-09-04T04:17:59.721Z,101554.42
2018-09-04T04:20:28.374Z,101552.20
2018-09-04T04:22:57.006Z,101558.26
2018-09-04T04:25:25.740Z,101553.25
2018-09-04T04:27:54.311Z,101555.95
2018-09-04T04:30:22.893Z,101551.87
2018-09-04T04:32:51.517Z,101559.64
2018-09-04T04:35:20.185Z,101556.94
2018-09-04T04:37:48.794Z,101558.66
2018-09-04T04:40:17.421Z,101569.20
2018-09-04T04:42:45.989Z,101566.98
2018-09-04T04:45:14.574Z,101573.73
2018-09-04T04:47:48.521Z,101569.70
2018-09-04T04:50:17.870Z,101568.41
2018-09-04T04:52:46.436Z,101576.75
2018-09-04T04:55:15.026Z,101575.91
2018-09-04T04:57:43.605Z,101579.44
2018-09-04T05:00:12.276Z,101581.22
2018-09-04T05:02:40.882Z,101578.02
2018-09-04T05:05:09.494Z,101576.79
2018-09-04T05:07:38.087Z,101573.89
2018-09-04T05:10:07.323Z,101574.52
2018-09-04T05:12:35.970Z,101570.98
2018-09-04T05:15:04.558Z,101578.12
2018-09-04T05:17:33.208Z,101580.88
2018-09-04T05:20:01.838Z,101575.13
2018-09-04T05:22:30.508Z,101573.74
2018-09-04T05:24:59.050Z,101577.67
2018-09-04T05:27:27.658Z,101583.19
2018-09-04T05:29:56.225Z,101580.09
2018-09-04T05:33:29.925Z,101581.66
2018-09-04T05:35:59.481Z,101593.48
2018-09-04T05:38:28.059Z,101593.48
2018-09-04T05:40:56.667Z,101597.17
2018-09-04T05:43:29.769Z,101598.85
2018-09-04T05:46:00.639Z,101602.39
2018-09-04T05:48:29.257Z,101592.87
2018-09-04T05:50:57.861Z,101591.20
2018-09-04T05:53:26.484Z,101590.13
2018-09-04T05:55:55.137Z,101596.81
2018-09-04T05:58:23.710Z,101597.95
2018-09-04T06:00:56.271Z,101597.95
2018-09-04T06:03:24.863Z,101600.30
2018-09-04T06:05:53.459Z,101602.06
2018-09-04T06:08:22.313Z,101600.44
2018-09-04T06:10:50.897Z,101592.79
2018-09-04T06:13:19.494Z,101593.98
2018-09-04T06:15:48.081Z,101591.74
2018-09-04T06:18:16.690Z,101597.86
2018-09-04T06:20:45.270Z,101602.60
2018-09-04T06:23:13.860Z,101598.55
2018-09-04T06:25:42.718Z,101605.91
2018-09-04T06:28:11.313Z,101607.06
2018-09-04T06:30:39.972Z,101609.91
2018-09-04T06:33:08.568Z,101609.83
2018-09-04T06:35:37.150Z,101609.43
2018-09-04T06:38:06.302Z,101604.05
2018-09-04T06:40:34.876Z,101605.77
2018-09-04T06:43:03.471Z,101604.63
2018-09-04T06:45:32.055Z,101603.32
2018-09-04T06:48:00.666Z,101602.34
2018-09-04T06:50:29.278Z,101602.52
2018-09-04T06:52:57.900Z,101609.83
2018-09-04T06:55:26.486Z,101609.40
2018-09-04T06:57:55.160Z,101610.02
2018-09-04T07:00:23.792Z,101613.33
2018-09-04T07:02:52.384Z,101611.58
2018-09-04T07:05:20.990Z,101610.88
2018-09-04T07:07:49.597Z,101614.64
2018-09-04T07:10:18.218Z,101613.90
2018-09-04T07:12:46.846Z,101615.16
2018-09-04T07:15:15.436Z,101615.83
2018-09-04T07:17:44.062Z,101616.69
2018-09-04T07:20:12.688Z,101615.38
2018-09-04T07:22:41.319Z,101612.58
2018-09-04T07:25:09.951Z,101616.36
2018-09-04T07:27:38.612Z,101616.02
2018-09-04T07:30:07.510Z,101608.91
2018-09-04T07:32:36.111Z,101618.13
2018-09-04T07:35:04.721Z,101620.23
2018-09-04T07:37:33.323Z,101620.84
2018-09-04T07:40:01.904Z,101616.66
2018-09-04T07:42:30.498Z,101617.63
2018-09-04T07:44:59.081Z,101620.55
2018-09-04T07:47:27.686Z,101618.84
2018-09-04T07:49:56.241Z,101605.84
2018-09-04T07:52:24.833Z,101610.56
2018-09-04T07:54:53.411Z,101605.56
2018-09-04T07:57:22.021Z,101608.73
2018-09-04T07:59:50.586Z,101611.98
2018-09-04T08:02:19.145Z,101609.77
2018-09-04T08:04:47.725Z,101615.96
2018-09-04T08:07:16.289Z,101610.41
2018-09-04T08:09:44.893Z,101609.07
2018-09-04T08:12:13.461Z,101608.91
2018-09-04T08:14:42.111Z,101612.20
2018-09-04T08:17:11.592Z,101615.73
2018-09-04T08:19:40.189Z,101614.30
2018-09-04T08:22:08.809Z,101618.14
2018-09-04T08:24:37.415Z,101614.20
2018-09-04T08:27:06.125Z,101611.47
2018-09-04T08:29:34.763Z,101609.97
2018-09-04T08:32:03.353Z,101606.16
2018-09-04T08:34:31.949Z,101604.64
2018-09-04T08:37:00.533Z,101604.88
2018-09-04T08:39:29.120Z,101603.59
2018-09-04T08:41:57.687Z,101607.55
2018-09-04T08:44:26.290Z,101597.03
2018-09-04T08:46:54.855Z,101590.31
2018-09-04T08:49:23.457Z,101597.75
2018-09-04T08:51:52.013Z,101592.14
2018-09-04T08:54:20.659Z,101589.62
2018-09-04T08:56:49.207Z,101583.48
2018-09-04T08:59:17.809Z,101584.59
2018-09-04T09:01:46.382Z,101582.66
2018-09-04T09:04:14.976Z,101583.95
2018-09-04T09:06:43.520Z,101575.47
2018-09-04T09:09:12.096Z,101578.68
2018-09-04T09:11:40.653Z,101575.03
2018-09-04T09:14:09.245Z,101576.73
2018-09-04T09:16:38.206Z,101575.95
2018-09-04T09:19:06.906Z,101573.51
2018-09-04T09:21:35.454Z,101571.00
2018-09-04T09:24:04.041Z,101574.03
2018-09-04T09:26:32.631Z,101575.94
2018-09-04T09:29:01.221Z,101574.89
2018-09-04T09:31:29.854Z,101568.49
2018-09-04T09:33:58.438Z,101573.23
2018-09-04T09:36:27.065Z,101572.19
2018-09-04T09:38:55.652Z,101566.44
2018-09-04T09:41:24.213Z,101564.96
2018-09-04T09:43:52.793Z,101570.01
2018-09-04T09:46:21.430Z,101566.99
2018-09-04T09:48:50.016Z,101571.00
2018-09-04T09:51:18.602Z,101560.46
2018-09-04T09:53:47.202Z,101560.46
2018-09-04T09:56:15.812Z,101559.66
2018-09-04T09:58:44.433Z,101559.20
2018-09-04T10:01:18.366Z,101560.39
2018-09-04T10:03:52.205Z,101553.38
2018-09-04T10:06:21.478Z,101553.00
2018-09-04T10:08:50.100Z,101552.23
2018-09-04T10:11:18.688Z,101549.78
2018-09-04T10:13:47.937Z,101550.30
2018-09-04T10:16:16.937Z,101553.08
2018-09-04T10:18:45.535Z,101551.83
2018-09-04T10:21:14.239Z,101552.35
2018-09-04T10:23:42.875Z,101548.36
2018-09-04T10:26:11.525Z,101539.02
2018-09-04T10:28:40.111Z,101532.13
2018-09-04T10:31:08.764Z,101536.31
2018-09-04T10:33:37.367Z,101532.70
2018-09-04T10:36:06.021Z,101543.88
2018-09-04T10:38:34.631Z,101537.16
2018-09-04T10:41:04.426Z,101538.76
2018-09-04T10:43:33.407Z,101536.17
2018-09-04T10:46:04.214Z,101531.94
2018-09-04T10:48:32.775Z,101528.64
2018-09-04T10:51:01.584Z,101527.34
2018-09-04T10:53:30.155Z,101526.15
2018-09-04T10:55:58.816Z,101523.25
2018-09-04T10:58:27.402Z,101520.85
2018-09-04T11:00:55.995Z,101523.97
2018-09-04T11:03:24.593Z,101509.07
2018-09-04T11:05:53.313Z,101519.83
2018-09-04T11:08:21.901Z,101511.42
2018-09-04T11:10:50.685Z,101516.92
2018-09-04T11:13:19.379Z,101524.05
2018-09-04T11:15:48.023Z,101522.06
2018-09-04T11:18:16.593Z,101511.92
2018-09-04T11:20:45.191Z,101521.52
2018-09-04T11:23:13.764Z,101519.81
2018-09-04T11:25:42.382Z,101512.56
2018-09-04T11:28:10.957Z,101521.73
2018-09-04T11:30:39.603Z,101513.11
2018-09-04T11:33:08.233Z,101516.17
2018-09-04T11:35:36.895Z,101520.67
2018-09-04T11:38:05.747Z,101521.22
2018-09-04T11:40:34.392Z,101529.06
2018-09-04T11:43:02.983Z,101518.69
2018-09-04T11:45:31.599Z,101515.67
2018-09-04T11:48:00.870Z,101517.39
2018-09-04T11:50:29.602Z,101520.34
2018-09-04T11:52:58.188Z,101515.33
2018-09-04T11:55:26.818Z,101520.98
2018-09-04T11:57:55.392Z,101517.69
2018-09-04T12:00:30.204Z,101515.73
2018-09-04T12:02:58.841Z,101517.30
2018-09-04T12:05:27.402Z,101516.45
2018-09-04T12:07:55.975Z,101519.03
2018-09-04T12:10:24.546Z,101518.02
2018-09-04T12:12:53.202Z,101517.14
2018-09-04T12:15:21.770Z,101513.12
2018-09-04T12:17:50.356Z,101512.53
2018-09-04T12:20:55.724Z,101517.90
2018-09-04T12:23:24.238Z,101508.91
2018-09-04T12:25:56.141Z,101513.34
2018-09-04T12:28:24.754Z,101513.22
2018-09-04T12:30:53.345Z,101512.63
2018-09-04T12:33:21.908Z,101502.19
2018-09-04T12:35:51.401Z,101506.90
2018-09-04T12:38:21.594Z,101499.70
2018-09-04T12:40:50.252Z,101501.33
2018-09-04T12:43:18.870Z,101502.72
2018-09-04T12:45:52.684Z,101500.30
2018-09-04T12:48:23.678Z,101496.19
2018-09-04T12:50:53.207Z,101494.65
2018-09-04T12:53:22.463Z,101502.98
2018-09-04T12:55:51.114Z,101500.07
2018-09-04T12:58:19.725Z,101501.52
2018-09-04T13:00:50.402Z,101502.08
2018-09-04T13:03:20.565Z,101504.31
2018-09-04T13:05:49.141Z,101500.34
2018-09-04T13:08:18.625Z,101507.59
2018-09-04T13:10:47.166Z,101509.25
2018-09-04T13:13:15.777Z,101512.97
2018-09-04T13:15:46.366Z,101511.07
2018-09-04T13:18:15.004Z,101508.77
2018-09-04T13:20:43.800Z,101516.29
2018-09-04T13:23:12.401Z,101514.84
2018-09-04T13:25:41.048Z,101514.64
2018-09-04T13:28:10.001Z,101508.88
2018-09-04T13:30:39.076Z,101508.63
2018-09-04T13:33:08.025Z,101511.50
2018-09-04T13:35:36.983Z,101508.86
2018-09-04T13:38:05.622Z,101508.27
2018-09-04T13:40:34.205Z,101506.65
2018-09-04T13:43:02.856Z,101495.41
2018-09-04T13:45:31.477Z,101496.02
2018-09-04T13:48:01.281Z,101495.98
2018-09-04T13:50:30.241Z,101491.20
2018-09-04T13:52:58.955Z,101493.38
2018-09-04T13:55:27.509Z,101489.67
2018-09-04T13:57:56.076Z,101496.42
2018-09-04T14:00:25.505Z,101490.29
2018-09-04T14:02:54.151Z,101494.69
2018-09-04T14:05:22.754Z,101497.34
2018-09-04T14:07:51.333Z,101497.50
2018-09-04T14:10:19.889Z,101501.44
2018-09-04T14:12:48.490Z,101496.92
2018-09-04T14:15:17.092Z,101503.32
2018-09-04T14:17:45.669Z,101500.94
2018-09-04T14:20:14.238Z,101498.65
2018-09-04T14:22:42.827Z,101498.03
2018-09-04T14:25:11.446Z,101495.58
2018-09-04T14:27:40.043Z,101497.13
2018-09-04T14:30:16.144Z,101494.44
2018-09-04T14:32:37.281Z,101496.48
2018-09-04T14:35:06.720Z,101496.66
2018-09-04T14:37:35.309Z,101490.95
2018-09-04T14:40:03.893Z,101499.81
2018-09-04T14:42:32.485Z,101506.34
2018-09-04T14:45:01.071Z,101508.64
2018-09-04T14:47:29.657Z,101506.70
2018-09-04T14:49:58.249Z,101507.89
2018-09-04T14:52:26.812Z,101507.06
2018-09-04T14:54:55.390Z,101503.74
2018-09-04T14:57:23.963Z,101510.39
2018-09-04T14:59:52.641Z,101503.34
2018-09-04T15:02:21.346Z,101513.79
2018-09-04T15:04:49.918Z,101519.30
2018-09-04T15:07:18.556Z,101516.28
2018-09-04T15:09:47.101Z,101512.66
2018-09-04T15:12:15.659Z,101512.66
2018-09-04T15:14:44.256Z,101515.86
2018-09-04T15:17:12.851Z,101518.11
2018-09-04T15:19:41.451Z,101521.47
2018-09-04T15:22:10.046Z,101516.42
2018-09-04T15:24:38.650Z,101520.58
2018-09-04T15:27:07.241Z,101514.73
2018-09-04T15:29:35.816Z,101515.92
2018-09-04T15:32:04.449Z,101517.86
2018-09-04T15:34:33.029Z,101521.52
2018-09-04T15:37:01.678Z,101523.48
2018-09-04T15:39:30.251Z,101517.59
2018-09-04T15:41:58.862Z,101526.53
2018-09-04T15:44:27.482Z,101525.98
2018-09-04T15:46:56.037Z,101522.36
2018-09-04T15:49:29.884Z,101521.81
2018-09-04T15:51:58.423Z,101517.87
2018-09-04T15:54:27.000Z,101525.16
2018-09-04T15:56:55.579Z,101525.98
2018-09-04T15:59:24.195Z,101523.74
2018-09-04T16:01:52.764Z,101518.70
2018-09-04T16:04:21.342Z,101522.63
2018-09-04T16:06:49.922Z,101522.84
2018-09-04T16:09:18.506Z,101523.40
2018-09-04T16:11:47.065Z,101515.86
2018-09-04T16:14:15.680Z,101517.27
2018-09-04T16:16:44.336Z,101518.66
2018-09-04T16:19:12.919Z,101519.20
2018-09-04T16:21:41.479Z,101521.98
2018-09-04T16:24:10.128Z,101520.58
2018-09-04T16:26:38.718Z,101519.16
2018-09-04T16:29:07.316Z,101518.31
2018-09-04T16:31:35.889Z,101522.48
2018-09-04T16:34:04.540Z,101526.62
2018-09-04T16:36:33.121Z,101531.62
2018-09-04T16:39:01.815Z,101526.03
2018-09-04T16:41:30.444Z,101533.25
2018-09-04T16:43:59.009Z,101529.00
2018-09-04T16:46:28.008Z,101531.75
2018-09-04T16:48:56.668Z,101530.30
2018-09-04T16:51:25.265Z,101536.39
2018-09-04T16:53:53.840Z,101543.58
2018-09-04T16:56:22.439Z,101544.64
2018-09-04T16:58:51.030Z,101540.73
2018-09-04T17:01:19.691Z,101551.78
2018-09-04T17:03:48.244Z,101551.20
2018-09-04T17:06:16.846Z,101546.41
2018-09-04T17:08:45.421Z,101554.14
2018-09-04T17:11:14.021Z,101549.59
2018-09-04T17:13:42.588Z,101550.89
2018-09-04T17:16:11.189Z,101553.61
2018-09-04T17:18:39.760Z,101547.14
2018-09-04T17:21:08.359Z,101552.32
2018-09-04T17:23:36.913Z,101553.59
2018-09-04T17:26:06.172Z,101552.37
2018-09-04T17:28:34.718Z,101557.52
2018-09-04T17:31:03.309Z,101558.48
2018-09-04T17:33:31.885Z,101553.30
2018-09-04T17:36:00.471Z,101556.22
2018-09-04T17:38:29.034Z,101556.11
2018-09-04T17:40:57.620Z,101557.58
2018-09-04T17:43:26.186Z,101565.72
2018-09-04T17:45:54.860Z,101560.54
2018-09-04T17:48:23.478Z,101560.89
2018-09-04T17:50:52.090Z,101550.73
2018-09-04T17:53:20.673Z,101554.66
2018-09-04T17:55:49.266Z,101561.41
2018-09-04T17:58:17.823Z,101560.33
2018-09-04T18:00:46.564Z,101562.57
2018-09-04T18:03:15.108Z,101570.18
2018-09-04T18:05:43.754Z,101574.34
2018-09-04T18:08:12.339Z,101576.27
2018-09-04T18:10:40.977Z,101577.44
2018-09-04T18:13:09.546Z,101587.23
2018-09-04T18:15:38.149Z,101588.69
2018-09-04T18:18:06.745Z,101594.42
2018-09-04T18:20:35.355Z,101595.45
2018-09-04T18:23:03.930Z,101605.66
2018-09-04T18:25:32.531Z,101601.63
2018-09-04T18:28:01.101Z,101608.91
2018-09-04T18:30:29.698Z,101607.53
2018-09-04T18:32:58.268Z,101607.95
2018-09-04T18:35:26.996Z,101612.03
2018-09-04T18:37:55.573Z,101614.75
2018-09-04T18:40:24.159Z,101615.21
2018-09-04T18:42:52.737Z,101622.26
2018-09-04T18:45:32.408Z,101623.02
2018-09-04T18:48:00.987Z,101624.58
2018-09-04T18:50:29.621Z,101624.88
2018-09-04T18:52:58.221Z,101632.03
2018-09-04T18:55:26.861Z,101626.50
2018-09-04T18:57:55.480Z,101623.36
2018-09-04T19:00:24.052Z,101631.29
2018-09-04T19:02:52.629Z,101634.77
2018-09-04T19:05:21.214Z,101635.99
2018-09-04T19:07:49.792Z,101640.30
2018-09-04T19:10:18.372Z,101650.31
2018-09-04T19:12:46.961Z,101648.69
2018-09-04T19:15:15.542Z,101656.77
2018-09-04T19:17:44.138Z,101651.86
2018-09-04T19:20:12.797Z,101654.45
2018-09-04T19:22:41.373Z,101648.25
2018-09-04T19:25:09.968Z,101650.55
2018-09-04T19:27:38.585Z,101655.09
2018-09-04T19:30:07.233Z,101656.09
2018-09-04T19:32:35.901Z,101654.03
2018-09-04T19:35:04.520Z,101654.64
2018-09-04T19:37:33.135Z,101659.98
2018-09-04T19:40:01.814Z,101663.14
2018-09-04T19:42:30.448Z,101663.50
2018-09-04T19:44:59.051Z,101664.11
2018-09-04T19:47:27.643Z,101663.33
2018-09-04T19:49:56.348Z,101667.52
2018-09-04T19:52:24.901Z,101667.78
2018-09-04T19:54:53.470Z,101670.59
2018-09-04T19:57:22.084Z,101673.41
2018-09-04T19:59:50.649Z,101675.70
2018-09-04T20:02:19.308Z,101684.03
2018-09-04T20:04:47.941Z,101685.86
2018-09-04T20:07:16.617Z,101690.23
2018-09-04T20:09:45.205Z,101688.66
2018-09-04T20:12:13.813Z,101693.27
2018-09-04T20:14:42.402Z,101689.70
2018-09-04T20:17:10.989Z,101690.69
2018-09-04T20:19:39.557Z,101694.08
2018-09-04T20:22:09.145Z,101697.21
2018-09-04T20:24:37.753Z,101700.30
2018-09-04T20:27:06.502Z,101699.30
2018-09-04T20:29:35.145Z,101700.06
2018-09-04T20:32:03.720Z,101702.00
2018-09-04T20:34:32.356Z,101702.97
2018-09-04T20:37:00.979Z,101708.95
2018-09-04T20:39:29.561Z,101702.92
2018-09-04T20:41:58.207Z,101714.61
2018-09-04T20:44:26.806Z,101711.75
2018-09-04T20:46:55.463Z,101713.43
2018-09-04T20:49:24.039Z,101716.42
2018-09-04T20:51:52.646Z,101712.58
2018-09-04T20:54:21.299Z,101712.09
2018-09-04T20:57:36.804Z,101714.56
2018-09-04T21:00:19.086Z,101714.17
2018-09-04T21:02:59.639Z,101714.22
2018-09-04T21:05:39.392Z,101716.97
2018-09-04T21:08:58.592Z,101715.05
2018-09-04T21:11:27.196Z,101716.13
2018-09-04T21:13:55.794Z,101720.90
2018-09-04T21:16:24.383Z,101725.98
2018-09-04T21:18:53.132Z,101724.91
2018-09-04T21:21:22.051Z,101723.11
2018-09-04T21:23:50.653Z,101726.08
2018-09-04T21:26:19.243Z,101724.16
2018-09-04T21:28:47.898Z,101731.03
2018-09-04T21:31:16.474Z,101734.19
2018-09-04T21:33:45.064Z,101726.77
2018-09-04T21:36:13.617Z,101728.75
2018-09-04T21:38:42.266Z,101726.00
2018-09-04T21:41:10.830Z,101725.22
2018-09-04T21:43:39.475Z,101723.48
2018-09-04T21:46:08.104Z,101725.58
2018-09-04T21:48:36.899Z,101724.79
2018-09-04T21:51:06.258Z,101730.34
2018-09-04T21:53:34.870Z,101730.08
2018-09-04T21:56:03.462Z,101726.18
2018-09-04T21:58:32.057Z,101729.24
2018-09-04T22:01:00.763Z,101736.67
2018-09-04T22:03:29.336Z,101742.70
2018-09-04T22:05:57.925Z,101740.98
2018-09-04T22:08:26.490Z,101742.40
2018-09-04T22:10:55.078Z,101748.73
2018-09-04T22:13:23.654Z,101753.41
2018-09-04T22:15:52.257Z,101756.06
2018-09-04T22:18:20.830Z,101752.66
2018-09-04T22:20:49.486Z,101753.15
2018-09-04T22:23:18.083Z,101751.31
2018-09-04T22:25:46.678Z,101749.09
2018-09-04T22:28:15.549Z,101747.69
2018-09-04T22:30:44.133Z,101752.19
2018-09-04T22:33:12.679Z,101751.08
2018-09-04T22:35:41.244Z,101748.68
2018-09-04T22:38:09.819Z,101751.42
2018-09-04T22:40:38.397Z,101749.91
2018-09-04T22:43:06.964Z,101747.45
2018-09-04T22:45:35.552Z,101751.31
2018-09-04T22:48:04.111Z,101751.31
2018-09-04T22:50:37.945Z,101758.22
2018-09-04T22:53:06.519Z,101758.42
2018-09-04T22:55:35.092Z,101752.17
2018-09-04T22:58:03.749Z,101759.76
2018-09-04T23:00:32.309Z,101764.23
2018-09-04T23:03:00.860Z,101765.86
2018-09-04T23:05:29.442Z,101764.69
2018-09-04T23:07:58.002Z,101767.21
2018-09-04T23:10:26.581Z,101774.59
2018-09-04T23:12:55.150Z,101774.66
2018-09-04T23:15:23.732Z,101768.80
2018-09-04T23:17:52.286Z,101763.63
2018-09-04T23:20:20.856Z,101767.11
2018-09-04T23:22:49.406Z,101768.87
2018-09-04T23:25:18.030Z,101774.88
2018-09-04T23:27:46.597Z,101767.14
2018-09-04T23:30:15.192Z,101771.67
2018-09-04T23:32:44.685Z,101770.62
2018-09-04T23:35:13.271Z,101766.30
2018-09-04T23:37:41.861Z,101766.30
2018-09-04T23:40:10.528Z,101767.67
2018-09-04T23:42:39.111Z,101760.88
2018-09-04T23:45:07.764Z,101759.58
2018-09-04T23:47:36.323Z,101761.16
2018-09-04T23:50:06.941Z,101760.33
2018-09-04T23:52:35.512Z,101763.62
2018-09-04T23:55:04.150Z,101760.86
2018-09-04T23:57:32.737Z,101768.57
